sensor_id;sensor_type;location;lat;lon;timestamp;P1;durP1;ratioP1;P2;durP2;ratioP2
59147;SDS011;44930;52.878;6.168;2022-12-18T00:01:45;83.00;;;34.38;;
59147;SDS011;44930;52.878;6.168;2022-12-18T00:04:15;90.32;;;33.97;;
59147;SDS011;44930;52.878;6.168;2022-12-18T00:06:44;77.50;;;31.77;;
59147;SDS011;44930;52.878;6.168;2022-12-18T00:09:10;84.20;;;33.05;;
59147;SDS011;44930;52.878;6.168;2022-12-18T00:11:36;93.25;;;32.70;;
59147;SDS011;44930;52.878;6.168;2022-12-18T00:14:02;74.68;;;31.35;;
59147;SDS011;44930;52.878;6.168;2022-12-18T00:16:28;88.65;;;29.85;;
59147;SDS011;44930;52.878;6.168;2022-12-18T00:18:56;84.75;;;33.28;;
59147;SDS011;44930;52.878;6.168;2022-12-18T00:21:22;75.88;;;33.13;;
59147;SDS011;44930;52.878;6.168;2022-12-18T00:23:50;75.13;;;30.23;;
59147;SDS011;44930;52.878;6.168;2022-12-18T00:26:18;74.93;;;32.25;;
59147;SDS011;44930;52.878;6.168;2022-12-18T00:28:45;72.05;;;30.02;;
59147;SDS011;44930;52.878;6.168;2022-12-18T00:31:12;69.43;;;29.60;;
59147;SDS011;44930;52.878;6.168;2022-12-18T00:33:38;74.22;;;31.80;;
59147;SDS011;44930;52.878;6.168;2022-12-18T00:36:05;69.80;;;27.73;;
59147;SDS011;44930;52.878;6.168;2022-12-18T00:38:33;73.95;;;28.75;;
59147;SDS011;44930;52.878;6.168;2022-12-18T00:40:59;62.33;;;26.70;;
59147;SDS011;44930;52.878;6.168;2022-12-18T00:43:26;72.85;;;31.90;;
59147;SDS011;44930;52.878;6.168;2022-12-18T00:45:52;68.10;;;29.30;;
59147;SDS011;44930;52.878;6.168;2022-12-18T00:48:18;76.55;;;29.83;;
59147;SDS011;44930;52.878;6.168;2022-12-18T00:50:44;71.15;;;28.98;;
59147;SDS011;44930;52.878;6.168;2022-12-18T00:53:10;72.95;;;28.65;;
59147;SDS011;44930;52.878;6.168;2022-12-18T00:55:39;77.30;;;31.10;;
59147;SDS011;44930;52.878;6.168;2022-12-18T00:58:06;71.22;;;29.30;;
59147;SDS011;44930;52.878;6.168;2022-12-18T01:00:32;75.55;;;30.00;;
59147;SDS011;44930;52.878;6.168;2022-12-18T01:02:58;70.93;;;28.30;;
59147;SDS011;44930;52.878;6.168;2022-12-18T01:05:24;71.35;;;28.65;;
59147;SDS011;44930;52.878;6.168;2022-12-18T01:07:50;73.55;;;29.13;;
59147;SDS011;44930;52.878;6.168;2022-12-18T01:10:16;72.95;;;29.02;;
59147;SDS011;44930;52.878;6.168;2022-12-18T01:12:42;67.43;;;29.35;;
59147;SDS011;44930;52.878;6.168;2022-12-18T01:15:09;74.18;;;29.17;;
59147;SDS011;44930;52.878;6.168;2022-12-18T01:17:35;61.75;;;28.98;;
59147;SDS011;44930;52.878;6.168;2022-12-18T01:20:01;71.18;;;27.55;;
59147;SDS011;44930;52.878;6.168;2022-12-18T01:22:27;64.65;;;27.27;;
59147;SDS011;44930;52.878;6.168;2022-12-18T01:24:53;66.47;;;25.88;;
59147;SDS011;44930;52.878;6.168;2022-12-18T01:27:19;65.53;;;26.42;;
59147;SDS011;44930;52.878;6.168;2022-12-18T01:29:45;66.00;;;26.67;;
59147;SDS011;44930;52.878;6.168;2022-12-18T01:32:11;68.65;;;27.50;;
59147;SDS011;44930;52.878;6.168;2022-12-18T01:34:37;68.25;;;27.02;;
59147;SDS011;44930;52.878;6.168;2022-12-18T01:37:04;65.38;;;27.88;;
59147;SDS011;44930;52.878;6.168;2022-12-18T01:39:30;73.72;;;28.02;;
59147;SDS011;44930;52.878;6.168;2022-12-18T01:41:57;62.78;;;27.33;;
59147;SDS011;44930;52.878;6.168;2022-12-18T01:52:58;77.05;;;29.42;;
59147;SDS011;44930;52.878;6.168;2022-12-18T01:55:26;74.60;;;30.65;;
59147;SDS011;44930;52.878;6.168;2022-12-18T01:57:54;74.53;;;29.42;;
59147;SDS011;44930;52.878;6.168;2022-12-18T02:00:21;74.60;;;30.83;;
59147;SDS011;44930;52.878;6.168;2022-12-18T02:02:47;77.93;;;31.73;;
59147;SDS011;44930;52.878;6.168;2022-12-18T02:05:15;76.15;;;31.25;;
59147;SDS011;44930;52.878;6.168;2022-12-18T02:07:58;73.28;;;29.55;;
59147;SDS011;44930;52.878;6.168;2022-12-18T02:10:30;72.07;;;30.17;;
59147;SDS011;44930;52.878;6.168;2022-12-18T02:15:38;67.72;;;29.27;;
59147;SDS011;44930;52.878;6.168;2022-12-18T02:18:10;73.03;;;30.48;;
59147;SDS011;44930;52.878;6.168;2022-12-18T02:20:45;70.20;;;28.50;;
59147;SDS011;44930;52.878;6.168;2022-12-18T02:28:23;77.30;;;32.88;;
59147;SDS011;44930;52.878;6.168;2022-12-18T02:30:51;82.38;;;32.05;;
59147;SDS011;44930;52.878;6.168;2022-12-18T02:33:19;80.43;;;33.03;;
59147;SDS011;44930;52.878;6.168;2022-12-18T02:35:46;80.13;;;33.33;;
59147;SDS011;44930;52.878;6.168;2022-12-18T02:38:13;70.93;;;30.92;;
59147;SDS011;44930;52.878;6.168;2022-12-18T02:40:40;75.70;;;31.00;;
59147;SDS011;44930;52.878;6.168;2022-12-18T02:43:10;72.50;;;30.70;;
59147;SDS011;44930;52.878;6.168;2022-12-18T02:45:45;75.10;;;32.22;;
59147;SDS011;44930;52.878;6.168;2022-12-18T02:48:12;74.72;;;31.27;;
59147;SDS011;44930;52.878;6.168;2022-12-18T02:50:40;75.90;;;31.90;;
59147;SDS011;44930;52.878;6.168;2022-12-18T02:55:39;74.50;;;30.95;;
59147;SDS011;44930;52.878;6.168;2022-12-18T02:58:16;76.07;;;29.60;;
59147;SDS011;44930;52.878;6.168;2022-12-18T03:00:47;70.43;;;28.90;;
59147;SDS011;44930;52.878;6.168;2022-12-18T03:03:26;70.65;;;30.10;;
59147;SDS011;44930;52.878;6.168;2022-12-18T03:06:05;65.57;;;29.00;;
59147;SDS011;44930;52.878;6.168;2022-12-18T03:08:34;74.55;;;31.20;;
59147;SDS011;44930;52.878;6.168;2022-12-18T03:11:03;61.90;;;25.92;;
59147;SDS011;44930;52.878;6.168;2022-12-18T03:15:56;64.72;;;26.27;;
59147;SDS011;44930;52.878;6.168;2022-12-18T03:18:24;62.40;;;26.67;;
59147;SDS011;44930;52.878;6.168;2022-12-18T03:20:51;70.10;;;28.35;;
59147;SDS011;44930;52.878;6.168;2022-12-18T03:23:18;62.60;;;26.67;;
59147;SDS011;44930;52.878;6.168;2022-12-18T03:25:46;66.18;;;27.00;;
59147;SDS011;44930;52.878;6.168;2022-12-18T03:28:14;58.92;;;24.58;;
59147;SDS011;44930;52.878;6.168;2022-12-18T03:30:41;58.67;;;25.52;;
59147;SDS011;44930;52.878;6.168;2022-12-18T03:33:10;63.92;;;27.98;;
59147;SDS011;44930;52.878;6.168;2022-12-18T03:35:42;59.58;;;25.02;;
59147;SDS011;44930;52.878;6.168;2022-12-18T03:38:09;52.53;;;22.85;;
59147;SDS011;44930;52.878;6.168;2022-12-18T03:43:18;60.90;;;24.02;;
59147;SDS011;44930;52.878;6.168;2022-12-18T03:45:51;59.28;;;24.65;;
59147;SDS011;44930;52.878;6.168;2022-12-18T03:48:22;58.53;;;25.95;;
59147;SDS011;44930;52.878;6.168;2022-12-18T03:50:56;62.70;;;25.55;;
59147;SDS011;44930;52.878;6.168;2022-12-18T03:53:31;60.95;;;24.17;;
59147;SDS011;44930;52.878;6.168;2022-12-18T03:55:59;54.47;;;23.50;;
59147;SDS011;44930;52.878;6.168;2022-12-18T03:58:25;57.65;;;23.25;;
59147;SDS011;44930;52.878;6.168;2022-12-18T04:00:52;51.55;;;23.27;;
59147;SDS011;44930;52.878;6.168;2022-12-18T04:03:20;53.03;;;24.40;;
59147;SDS011;44930;52.878;6.168;2022-12-18T04:05:47;53.58;;;23.90;;
59147;SDS011;44930;52.878;6.168;2022-12-18T04:08:15;57.17;;;24.95;;
59147;SDS011;44930;52.878;6.168;2022-12-18T04:10:42;51.00;;;22.42;;
59147;SDS011;44930;52.878;6.168;2022-12-18T04:13:08;55.70;;;23.02;;
59147;SDS011;44930;52.878;6.168;2022-12-18T04:15:34;54.33;;;23.45;;
59147;SDS011;44930;52.878;6.168;2022-12-18T04:18:01;51.35;;;22.50;;
59147;SDS011;44930;52.878;6.168;2022-12-18T04:20:27;50.15;;;22.67;;
59147;SDS011;44930;52.878;6.168;2022-12-18T04:22:53;50.95;;;21.77;;
59147;SDS011;44930;52.878;6.168;2022-12-18T04:25:18;52.72;;;22.05;;
59147;SDS011;44930;52.878;6.168;2022-12-18T04:27:44;42.97;;;23.15;;
59147;SDS011;44930;52.878;6.168;2022-12-18T04:30:10;50.28;;;22.60;;
59147;SDS011;44930;52.878;6.168;2022-12-18T04:32:36;49.38;;;22.20;;
59147;SDS011;44930;52.878;6.168;2022-12-18T04:35:03;51.15;;;22.27;;
59147;SDS011;44930;52.878;6.168;2022-12-18T04:37:31;49.78;;;22.15;;
59147;SDS011;44930;52.878;6.168;2022-12-18T04:39:57;51.25;;;20.98;;
59147;SDS011;44930;52.878;6.168;2022-12-18T04:42:23;49.60;;;21.90;;
59147;SDS011;44930;52.878;6.168;2022-12-18T04:44:49;50.00;;;22.63;;
59147;SDS011;44930;52.878;6.168;2022-12-18T04:47:15;53.15;;;20.63;;
59147;SDS011;44930;52.878;6.168;2022-12-18T04:49:41;43.88;;;20.23;;
59147;SDS011;44930;52.878;6.168;2022-12-18T04:52:07;48.97;;;19.98;;
59147;SDS011;44930;52.878;6.168;2022-12-18T04:54:33;50.03;;;21.33;;
59147;SDS011;44930;52.878;6.168;2022-12-18T04:56:59;46.78;;;19.45;;
59147;SDS011;44930;52.878;6.168;2022-12-18T04:59:25;46.03;;;21.58;;
59147;SDS011;44930;52.878;6.168;2022-12-18T05:01:51;45.03;;;20.38;;
59147;SDS011;44930;52.878;6.168;2022-12-18T05:04:17;48.95;;;19.83;;
59147;SDS011;44930;52.878;6.168;2022-12-18T05:06:43;45.33;;;20.02;;
59147;SDS011;44930;52.878;6.168;2022-12-18T05:09:09;43.75;;;19.52;;
59147;SDS011;44930;52.878;6.168;2022-12-18T05:11:34;53.15;;;21.17;;
59147;SDS011;44930;52.878;6.168;2022-12-18T05:14:00;48.55;;;20.10;;
59147;SDS011;44930;52.878;6.168;2022-12-18T05:16:26;48.85;;;20.75;;
59147;SDS011;44930;52.878;6.168;2022-12-18T05:18:52;47.42;;;19.90;;
59147;SDS011;44930;52.878;6.168;2022-12-18T05:21:18;46.95;;;20.05;;
59147;SDS011;44930;52.878;6.168;2022-12-18T05:23:44;42.70;;;18.40;;
59147;SDS011;44930;52.878;6.168;2022-12-18T05:26:13;54.22;;;21.30;;
59147;SDS011;44930;52.878;6.168;2022-12-18T05:28:39;50.45;;;22.77;;
59147;SDS011;44930;52.878;6.168;2022-12-18T05:31:05;42.63;;;19.98;;
59147;SDS011;44930;52.878;6.168;2022-12-18T05:33:32;49.40;;;20.80;;
59147;SDS011;44930;52.878;6.168;2022-12-18T05:35:59;51.15;;;21.48;;
59147;SDS011;44930;52.878;6.168;2022-12-18T05:38:25;39.88;;;17.85;;
59147;SDS011;44930;52.878;6.168;2022-12-18T05:40:52;48.75;;;19.50;;
59147;SDS011;44930;52.878;6.168;2022-12-18T05:43:18;46.90;;;19.63;;
59147;SDS011;44930;52.878;6.168;2022-12-18T05:45:45;44.78;;;19.77;;
59147;SDS011;44930;52.878;6.168;2022-12-18T05:48:14;46.38;;;18.90;;
59147;SDS011;44930;52.878;6.168;2022-12-18T05:50:41;43.78;;;19.38;;
59147;SDS011;44930;52.878;6.168;2022-12-18T05:53:07;46.65;;;19.10;;
59147;SDS011;44930;52.878;6.168;2022-12-18T05:55:37;44.30;;;19.55;;
59147;SDS011;44930;52.878;6.168;2022-12-18T05:58:04;40.30;;;17.58;;
59147;SDS011;44930;52.878;6.168;2022-12-18T06:00:31;44.33;;;18.13;;
59147;SDS011;44930;52.878;6.168;2022-12-18T06:02:57;50.78;;;18.65;;
59147;SDS011;44930;52.878;6.168;2022-12-18T06:05:23;44.78;;;17.67;;
59147;SDS011;44930;52.878;6.168;2022-12-18T06:07:49;39.97;;;17.38;;
59147;SDS011;44930;52.878;6.168;2022-12-18T06:10:15;46.45;;;18.95;;
59147;SDS011;44930;52.878;6.168;2022-12-18T06:12:41;40.53;;;17.10;;
59147;SDS011;44930;52.878;6.168;2022-12-18T06:15:07;46.50;;;18.98;;
59147;SDS011;44930;52.878;6.168;2022-12-18T06:17:33;44.75;;;18.20;;
59147;SDS011;44930;52.878;6.168;2022-12-18T06:19:59;46.13;;;19.95;;
59147;SDS011;44930;52.878;6.168;2022-12-18T06:22:26;44.40;;;18.55;;
59147;SDS011;44930;52.878;6.168;2022-12-18T06:24:52;38.97;;;17.98;;
59147;SDS011;44930;52.878;6.168;2022-12-18T06:27:18;42.55;;;19.13;;
59147;SDS011;44930;52.878;6.168;2022-12-18T06:29:44;45.83;;;19.10;;
59147;SDS011;44930;52.878;6.168;2022-12-18T06:32:10;44.58;;;18.27;;
59147;SDS011;44930;52.878;6.168;2022-12-18T06:34:37;40.63;;;19.42;;
59147;SDS011;44930;52.878;6.168;2022-12-18T06:37:03;42.30;;;19.83;;
59147;SDS011;44930;52.878;6.168;2022-12-18T06:39:29;40.83;;;18.08;;
59147;SDS011;44930;52.878;6.168;2022-12-18T06:41:55;48.45;;;18.85;;
59147;SDS011;44930;52.878;6.168;2022-12-18T06:44:21;39.45;;;17.10;;
59147;SDS011;44930;52.878;6.168;2022-12-18T06:46:47;55.60;;;20.42;;
59147;SDS011;44930;52.878;6.168;2022-12-18T06:49:13;51.65;;;19.55;;
59147;SDS011;44930;52.878;6.168;2022-12-18T06:51:40;43.78;;;18.60;;
59147;SDS011;44930;52.878;6.168;2022-12-18T06:54:07;44.53;;;21.00;;
59147;SDS011;44930;52.878;6.168;2022-12-18T06:56:33;47.58;;;18.80;;
59147;SDS011;44930;52.878;6.168;2022-12-18T06:58:59;42.20;;;19.60;;
59147;SDS011;44930;52.878;6.168;2022-12-18T07:01:25;46.25;;;19.17;;
59147;SDS011;44930;52.878;6.168;2022-12-18T07:03:51;49.38;;;18.55;;
59147;SDS011;44930;52.878;6.168;2022-12-18T07:06:18;46.25;;;19.95;;
59147;SDS011;44930;52.878;6.168;2022-12-18T07:08:45;46.83;;;19.80;;
59147;SDS011;44930;52.878;6.168;2022-12-18T07:11:12;41.78;;;18.80;;
59147;SDS011;44930;52.878;6.168;2022-12-18T07:13:38;48.15;;;18.27;;
59147;SDS011;44930;52.878;6.168;2022-12-18T07:16:05;41.30;;;18.17;;
59147;SDS011;44930;52.878;6.168;2022-12-18T07:18:31;45.08;;;18.55;;
59147;SDS011;44930;52.878;6.168;2022-12-18T07:20:57;39.28;;;17.15;;
59147;SDS011;44930;52.878;6.168;2022-12-18T07:23:23;37.95;;;17.67;;
59147;SDS011;44930;52.878;6.168;2022-12-18T07:25:49;41.08;;;16.13;;
59147;SDS011;44930;52.878;6.168;2022-12-18T07:28:15;37.67;;;19.20;;
59147;SDS011;44930;52.878;6.168;2022-12-18T07:30:41;37.45;;;16.45;;
59147;SDS011;44930;52.878;6.168;2022-12-18T07:33:07;38.97;;;17.17;;
59147;SDS011;44930;52.878;6.168;2022-12-18T07:35:33;35.38;;;15.32;;
59147;SDS011;44930;52.878;6.168;2022-12-18T07:37:59;32.55;;;17.85;;
59147;SDS011;44930;52.878;6.168;2022-12-18T07:40:25;37.63;;;17.00;;
59147;SDS011;44930;52.878;6.168;2022-12-18T07:42:51;35.55;;;16.85;;
59147;SDS011;44930;52.878;6.168;2022-12-18T07:45:17;38.33;;;16.98;;
59147;SDS011;44930;52.878;6.168;2022-12-18T07:47:42;39.85;;;17.92;;
59147;SDS011;44930;52.878;6.168;2022-12-18T07:50:09;38.85;;;15.77;;
59147;SDS011;44930;52.878;6.168;2022-12-18T07:52:35;38.05;;;16.15;;
59147;SDS011;44930;52.878;6.168;2022-12-18T07:55:01;34.25;;;16.38;;
59147;SDS011;44930;52.878;6.168;2022-12-18T07:57:28;31.30;;;14.93;;
59147;SDS011;44930;52.878;6.168;2022-12-18T07:59:54;31.98;;;15.70;;
59147;SDS011;44930;52.878;6.168;2022-12-18T08:02:20;33.58;;;15.48;;
59147;SDS011;44930;52.878;6.168;2022-12-18T08:04:45;33.67;;;15.45;;
59147;SDS011;44930;52.878;6.168;2022-12-18T08:07:11;36.25;;;15.85;;
59147;SDS011;44930;52.878;6.168;2022-12-18T08:09:38;34.15;;;13.60;;
59147;SDS011;44930;52.878;6.168;2022-12-18T08:12:04;35.70;;;16.20;;
59147;SDS011;44930;52.878;6.168;2022-12-18T08:14:30;32.65;;;14.52;;
59147;SDS011;44930;52.878;6.168;2022-12-18T08:16:56;32.85;;;15.90;;
59147;SDS011;44930;52.878;6.168;2022-12-18T08:19:22;29.17;;;14.77;;
59147;SDS011;44930;52.878;6.168;2022-12-18T08:21:48;26.10;;;13.57;;
59147;SDS011;44930;52.878;6.168;2022-12-18T08:24:14;28.08;;;14.88;;
59147;SDS011;44930;52.878;6.168;2022-12-18T08:26:40;33.53;;;15.25;;
59147;SDS011;44930;52.878;6.168;2022-12-18T08:29:06;26.05;;;13.27;;
59147;SDS011;44930;52.878;6.168;2022-12-18T08:31:32;30.45;;;15.60;;
59147;SDS011;44930;52.878;6.168;2022-12-18T08:33:58;32.08;;;13.80;;
59147;SDS011;44930;52.878;6.168;2022-12-18T08:36:24;31.05;;;14.57;;
59147;SDS011;44930;52.878;6.168;2022-12-18T08:38:51;31.25;;;15.82;;
59147;SDS011;44930;52.878;6.168;2022-12-18T08:41:17;31.38;;;15.63;;
59147;SDS011;44930;52.878;6.168;2022-12-18T08:43:43;25.42;;;14.07;;
59147;SDS011;44930;52.878;6.168;2022-12-18T08:46:32;28.17;;;13.65;;
59147;SDS011;44930;52.878;6.168;2022-12-18T08:48:58;26.92;;;15.13;;
59147;SDS011;44930;52.878;6.168;2022-12-18T08:51:24;28.45;;;14.68;;
59147;SDS011;44930;52.878;6.168;2022-12-18T08:53:50;34.65;;;15.38;;
59147;SDS011;44930;52.878;6.168;2022-12-18T08:56:16;29.00;;;14.52;;
59147;SDS011;44930;52.878;6.168;2022-12-18T08:58:42;23.13;;;13.10;;
59147;SDS011;44930;52.878;6.168;2022-12-18T09:01:09;30.67;;;14.60;;
59147;SDS011;44930;52.878;6.168;2022-12-18T09:03:36;25.30;;;13.90;;
59147;SDS011;44930;52.878;6.168;2022-12-18T09:06:02;29.95;;;13.85;;
59147;SDS011;44930;52.878;6.168;2022-12-18T09:08:28;26.77;;;14.30;;
59147;SDS011;44930;52.878;6.168;2022-12-18T09:10:54;27.20;;;13.93;;
59147;SDS011;44930;52.878;6.168;2022-12-18T09:13:20;27.70;;;13.75;;
59147;SDS011;44930;52.878;6.168;2022-12-18T09:15:50;25.25;;;14.00;;
59147;SDS011;44930;52.878;6.168;2022-12-18T09:18:16;23.73;;;13.07;;
59147;SDS011;44930;52.878;6.168;2022-12-18T09:20:43;25.95;;;13.95;;
59147;SDS011;44930;52.878;6.168;2022-12-18T09:23:09;25.00;;;12.73;;
59147;SDS011;44930;52.878;6.168;2022-12-18T09:25:35;21.60;;;12.60;;
59147;SDS011;44930;52.878;6.168;2022-12-18T09:28:02;26.88;;;13.25;;
59147;SDS011;44930;52.878;6.168;2022-12-18T09:30:29;21.90;;;12.75;;
59147;SDS011;44930;52.878;6.168;2022-12-18T09:32:58;21.83;;;13.38;;
59147;SDS011;44930;52.878;6.168;2022-12-18T09:35:24;24.75;;;11.75;;
59147;SDS011;44930;52.878;6.168;2022-12-18T09:37:50;24.52;;;13.48;;
59147;SDS011;44930;52.878;6.168;2022-12-18T09:40:17;22.55;;;12.93;;
59147;SDS011;44930;52.878;6.168;2022-12-18T09:42:45;23.35;;;13.10;;
59147;SDS011;44930;52.878;6.168;2022-12-18T09:45:13;20.40;;;12.50;;
59147;SDS011;44930;52.878;6.168;2022-12-18T09:47:40;24.33;;;12.40;;
59147;SDS011;44930;52.878;6.168;2022-12-18T09:50:26;23.67;;;12.68;;
59147;SDS011;44930;52.878;6.168;2022-12-18T09:52:57;19.67;;;11.75;;
59147;SDS011;44930;52.878;6.168;2022-12-18T09:55:29;22.83;;;12.48;;
59147;SDS011;44930;52.878;6.168;2022-12-18T10:00:52;22.40;;;11.07;;
59147;SDS011;44930;52.878;6.168;2022-12-18T10:03:19;20.67;;;11.18;;
59147;SDS011;44930;52.878;6.168;2022-12-18T10:11:03;22.67;;;11.23;;
59147;SDS011;44930;52.878;6.168;2022-12-18T10:13:40;16.77;;;9.68;;
59147;SDS011;44930;52.878;6.168;2022-12-18T10:16:12;19.25;;;10.98;;
59147;SDS011;44930;52.878;6.168;2022-12-18T10:18:56;19.88;;;10.55;;
59147;SDS011;44930;52.878;6.168;2022-12-18T10:21:31;19.55;;;11.10;;
59147;SDS011;44930;52.878;6.168;2022-12-18T10:26:24;18.90;;;9.77;;
59147;SDS011;44930;52.878;6.168;2022-12-18T10:28:50;18.52;;;9.30;;
59147;SDS011;44930;52.878;6.168;2022-12-18T10:31:22;16.33;;;9.68;;
59147;SDS011;44930;52.878;6.168;2022-12-18T10:33:48;14.80;;;8.23;;
59147;SDS011;44930;52.878;6.168;2022-12-18T10:36:14;15.13;;;7.45;;
59147;SDS011;44930;52.878;6.168;2022-12-18T10:38:40;16.55;;;8.20;;
59147;SDS011;44930;52.878;6.168;2022-12-18T10:41:08;14.00;;;8.13;;
59147;SDS011;44930;52.878;6.168;2022-12-18T10:44:10;14.55;;;7.03;;
59147;SDS011;44930;52.878;6.168;2022-12-18T10:46:36;13.13;;;8.00;;
59147;SDS011;44930;52.878;6.168;2022-12-18T10:49:02;13.27;;;7.25;;
59147;SDS011;44930;52.878;6.168;2022-12-18T10:51:31;15.52;;;8.80;;
59147;SDS011;44930;52.878;6.168;2022-12-18T10:54:06;17.60;;;8.00;;
59147;SDS011;44930;52.878;6.168;2022-12-18T10:56:33;17.30;;;9.20;;
59147;SDS011;44930;52.878;6.168;2022-12-18T10:59:04;16.23;;;8.85;;
59147;SDS011;44930;52.878;6.168;2022-12-18T11:01:50;13.40;;;7.97;;
59147;SDS011;44930;52.878;6.168;2022-12-18T11:04:21;12.50;;;7.05;;
59147;SDS011;44930;52.878;6.168;2022-12-18T11:06:52;14.30;;;7.28;;
59147;SDS011;44930;52.878;6.168;2022-12-18T11:09:22;12.32;;;7.18;;
59147;SDS011;44930;52.878;6.168;2022-12-18T11:11:49;13.32;;;8.20;;
59147;SDS011;44930;52.878;6.168;2022-12-18T11:15:02;12.65;;;7.05;;
59147;SDS011;44930;52.878;6.168;2022-12-18T11:17:19;13.93;;;7.40;;
59147;SDS011;44930;52.878;6.168;2022-12-18T11:19:51;14.57;;;7.93;;
59147;SDS011;44930;52.878;6.168;2022-12-18T11:24:55;14.70;;;6.97;;
59147;SDS011;44930;52.878;6.168;2022-12-18T11:27:22;11.93;;;6.85;;
59147;SDS011;44930;52.878;6.168;2022-12-18T11:29:49;11.77;;;7.15;;
59147;SDS011;44930;52.878;6.168;2022-12-18T11:32:21;12.63;;;7.63;;
59147;SDS011;44930;52.878;6.168;2022-12-18T11:34:50;11.70;;;7.25;;
59147;SDS011;44930;52.878;6.168;2022-12-18T11:37:20;13.57;;;7.70;;
59147;SDS011;44930;52.878;6.168;2022-12-18T11:39:49;14.85;;;9.10;;
59147;SDS011;44930;52.878;6.168;2022-12-18T11:42:24;13.00;;;7.88;;
59147;SDS011;44930;52.878;6.168;2022-12-18T11:50:48;14.95;;;9.30;;
59147;SDS011;44930;52.878;6.168;2022-12-18T11:53:18;9.25;;;5.28;;
59147;SDS011;44930;52.878;6.168;2022-12-18T12:09:14;14.45;;;8.30;;
59147;SDS011;44930;52.878;6.168;2022-12-18T12:14:24;14.15;;;8.15;;
59147;SDS011;44930;52.878;6.168;2022-12-18T12:17:22;13.52;;;7.50;;
59147;SDS011;44930;52.878;6.168;2022-12-18T12:25:48;12.07;;;7.22;;
59147;SDS011;44930;52.878;6.168;2022-12-18T12:28:35;11.00;;;6.60;;
59147;SDS011;44930;52.878;6.168;2022-12-18T12:31:06;10.85;;;6.30;;
59147;SDS011;44930;52.878;6.168;2022-12-18T12:33:42;12.70;;;7.25;;
59147;SDS011;44930;52.878;6.168;2022-12-18T12:36:16;11.32;;;6.35;;
59147;SDS011;44930;52.878;6.168;2022-12-18T12:39:07;11.70;;;6.30;;
59147;SDS011;44930;52.878;6.168;2022-12-18T12:41:37;11.57;;;6.47;;
59147;SDS011;44930;52.878;6.168;2022-12-18T12:44:34;10.77;;;6.47;;
59147;SDS011;44930;52.878;6.168;2022-12-18T12:47:04;8.40;;;5.90;;
59147;SDS011;44930;52.878;6.168;2022-12-18T12:49:32;11.43;;;6.07;;
59147;SDS011;44930;52.878;6.168;2022-12-18T12:52:06;9.85;;;5.85;;
59147;SDS011;44930;52.878;6.168;2022-12-18T12:54:37;10.93;;;6.18;;
59147;SDS011;44930;52.878;6.168;2022-12-18T13:02:08;10.70;;;5.65;;
59147;SDS011;44930;52.878;6.168;2022-12-18T13:05:14;10.27;;;5.70;;
59147;SDS011;44930;52.878;6.168;2022-12-18T13:13:09;10.05;;;5.72;;
59147;SDS011;44930;52.878;6.168;2022-12-18T13:15:47;7.95;;;4.72;;
59147;SDS011;44930;52.878;6.168;2022-12-18T13:18:14;8.85;;;6.07;;
59147;SDS011;44930;52.878;6.168;2022-12-18T13:20:42;9.30;;;5.68;;
59147;SDS011;44930;52.878;6.168;2022-12-18T13:28:49;9.55;;;5.28;;
59147;SDS011;44930;52.878;6.168;2022-12-18T13:33:49;9.32;;;5.50;;
59147;SDS011;44930;52.878;6.168;2022-12-18T13:36:16;10.32;;;4.60;;
59147;SDS011;44930;52.878;6.168;2022-12-18T13:38:42;10.57;;;5.03;;
59147;SDS011;44930;52.878;6.168;2022-12-18T13:46:29;9.75;;;5.10;;
59147;SDS011;44930;52.878;6.168;2022-12-18T13:49:03;10.60;;;5.90;;
59147;SDS011;44930;52.878;6.168;2022-12-18T13:51:31;10.85;;;5.68;;
59147;SDS011;44930;52.878;6.168;2022-12-18T13:53:59;7.68;;;4.72;;
59147;SDS011;44930;52.878;6.168;2022-12-18T13:56:30;11.10;;;5.55;;
59147;SDS011;44930;52.878;6.168;2022-12-18T14:01:51;8.25;;;5.00;;
59147;SDS011;44930;52.878;6.168;2022-12-18T14:04:28;8.88;;;5.43;;
59147;SDS011;44930;52.878;6.168;2022-12-18T14:06:56;9.95;;;4.65;;
59147;SDS011;44930;52.878;6.168;2022-12-18T14:09:24;8.65;;;4.75;;
59147;SDS011;44930;52.878;6.168;2022-12-18T14:11:53;7.50;;;4.47;;
59147;SDS011;44930;52.878;6.168;2022-12-18T14:17:10;10.35;;;5.10;;
59147;SDS011;44930;52.878;6.168;2022-12-18T14:19:36;7.70;;;5.32;;
59147;SDS011;44930;52.878;6.168;2022-12-18T14:22:02;12.95;;;5.20;;
59147;SDS011;44930;52.878;6.168;2022-12-18T14:24:28;8.25;;;4.93;;
59147;SDS011;44930;52.878;6.168;2022-12-18T14:26:56;10.48;;;5.35;;
59147;SDS011;44930;52.878;6.168;2022-12-18T14:29:37;9.43;;;4.90;;
59147;SDS011;44930;52.878;6.168;2022-12-18T14:32:13;6.70;;;4.15;;
59147;SDS011;44930;52.878;6.168;2022-12-18T14:34:42;10.70;;;4.65;;
59147;SDS011;44930;52.878;6.168;2022-12-18T14:37:09;8.65;;;5.10;;
59147;SDS011;44930;52.878;6.168;2022-12-18T14:39:35;9.30;;;4.38;;
59147;SDS011;44930;52.878;6.168;2022-12-18T14:42:01;9.95;;;5.03;;
59147;SDS011;44930;52.878;6.168;2022-12-18T14:44:27;9.77;;;5.22;;
59147;SDS011;44930;52.878;6.168;2022-12-18T14:46:54;9.00;;;4.60;;
59147;SDS011;44930;52.878;6.168;2022-12-18T14:49:29;7.55;;;4.65;;
59147;SDS011;44930;52.878;6.168;2022-12-18T14:51:56;9.20;;;4.90;;
59147;SDS011;44930;52.878;6.168;2022-12-18T14:54:30;9.52;;;5.32;;
59147;SDS011;44930;52.878;6.168;2022-12-18T14:56:59;8.60;;;5.53;;
59147;SDS011;44930;52.878;6.168;2022-12-18T14:59:28;9.57;;;4.75;;
59147;SDS011;44930;52.878;6.168;2022-12-18T15:05:03;7.72;;;4.35;;
59147;SDS011;44930;52.878;6.168;2022-12-18T15:07:48;9.57;;;5.32;;
59147;SDS011;44930;52.878;6.168;2022-12-18T15:10:19;7.72;;;4.03;;
59147;SDS011;44930;52.878;6.168;2022-12-18T15:20:40;7.72;;;4.60;;
59147;SDS011;44930;52.878;6.168;2022-12-18T15:23:14;8.43;;;4.97;;
59147;SDS011;44930;52.878;6.168;2022-12-18T15:25:40;9.18;;;4.57;;
59147;SDS011;44930;52.878;6.168;2022-12-18T15:33:44;14.63;;;6.90;;
59147;SDS011;44930;52.878;6.168;2022-12-18T15:36:30;8.43;;;4.78;;
59147;SDS011;44930;52.878;6.168;2022-12-18T15:38:56;8.93;;;4.97;;
59147;SDS011;44930;52.878;6.168;2022-12-18T15:41:23;8.68;;;5.15;;
59147;SDS011;44930;52.878;6.168;2022-12-18T15:43:50;8.50;;;4.90;;
59147;SDS011;44930;52.878;6.168;2022-12-18T15:46:17;9.13;;;4.80;;
59147;SDS011;44930;52.878;6.168;2022-12-18T15:48:45;9.63;;;5.00;;
59147;SDS011;44930;52.878;6.168;2022-12-18T15:51:16;6.93;;;4.95;;
59147;SDS011;44930;52.878;6.168;2022-12-18T15:53:45;9.15;;;5.45;;
59147;SDS011;44930;52.878;6.168;2022-12-18T15:56:13;7.32;;;5.13;;
59147;SDS011;44930;52.878;6.168;2022-12-18T15:58:58;8.80;;;4.10;;
59147;SDS011;44930;52.878;6.168;2022-12-18T16:01:26;8.85;;;5.13;;
59147;SDS011;44930;52.878;6.168;2022-12-18T16:03:53;9.63;;;5.78;;
59147;SDS011;44930;52.878;6.168;2022-12-18T16:06:20;14.00;;;5.68;;
59147;SDS011;44930;52.878;6.168;2022-12-18T16:08:45;8.77;;;5.35;;
59147;SDS011;44930;52.878;6.168;2022-12-18T16:14:19;10.05;;;5.53;;
59147;SDS011;44930;52.878;6.168;2022-12-18T16:16:46;8.68;;;5.50;;
59147;SDS011;44930;52.878;6.168;2022-12-18T16:19:14;11.65;;;6.38;;
59147;SDS011;44930;52.878;6.168;2022-12-18T16:21:40;10.15;;;5.57;;
59147;SDS011;44930;52.878;6.168;2022-12-18T16:24:09;10.15;;;5.40;;
59147;SDS011;44930;52.878;6.168;2022-12-18T16:26:38;8.43;;;5.30;;
59147;SDS011;44930;52.878;6.168;2022-12-18T16:29:06;8.30;;;5.22;;
59147;SDS011;44930;52.878;6.168;2022-12-18T16:31:32;8.57;;;5.30;;